Anderson Springs, California
Current Conditions -  °F | °C
As of 3:53 PM on Wednesday 26 Nov 2014 (Local Time) from KSTS Reporting Station
Broken Clouds Broken Clouds  
Wind Chill: 67°   Ceiling: 25000
Heat Index: 67°   Visibility: 10mi
Dew Point: 48°   Wind: 0mph
Humidity: 51%   Direction: NA
Pressure: 30.2"   Gusts: NA
Location:  38.7763°N, 122.598°W
Report Text: KSTS 262353Z 00000KT 10SM BKN250 19/09 A3020 RMK AO2 SLP221 T01940089 10200 20111 56009
Loading
Personal Weather Stations






























Interactive Weather Map New forecast layout! Learn more

10-Day Weather Forecast

Advertisements
Track Severe Weather on mobile